aviador You're here:

KMHT Decoded Metar

MANCHESTER in NH, USA
Report Time2018-07-18 18:53:00
UTC Time2018-07-18 19:57:47
Flight Rules vfr VFR
Wind310° at 12 kt
W.Decomp.*RWY 35: 11.0 kt HW 4.9 kt LCW
RWY 24: 0.8 kt HW 12.0 kt RCW
W.Rank310° ranks 9
Current wind is above 310° avg. (9.5)
Visibility9999 m
Phenomena:N/A
Clouds:Few 060 Hf
Expected CloudBase > 7,200 ft AGL from Temp-Dew spread
CeilingNone
Temp26°C (ISA +12)
Dew Point08°C (32% RH)
AAT21.2°C
QNH1012 hPa
Density Alt1,778 ft
Elevation266 ft
Report Wrong Elevation
Raw Report
KMHT 181853Z 31012KT 10SM FEW060 26/08 A2987 RMK AO2 SLP125
T02560083=

Extra information for KMHT:More info

Metar Taf Metar & Taf Last 4 Metars F.Rules Stats Wind Profile Meteogram Temp Stats Airport Information Weather charts Add Link Nearby VenuesMetar ALERT Operation Metar Decoded Social comments

AIRNAV info for KMHT